Time;durP1;ratioP1;P1;durP2;ratioP2;P2;SDS_P1;SDS_P2;PMS_P1;PMS_P2;Temp;Humidity;BMP_temperature;BMP_pressure;BME280_temperature;BME280_humidity;BME280_pressure;Samples;Min_cycle;Max_cycle;Signal;HPM_P1;HPM_P2
2022/01/08 00:01:14;;;;;;;24.20;10.90;;;;;;;-3.85;87.51;100333.19;6346787;28;20035;-76
2022/01/08 00:04:15;;;;;;;19.25;10.65;;;;;;;-3.93;87.46;100336.56;6295438;28;20122;-76
2022/01/08 00:07:16;;;;;;;23.52;10.18;;;;;;;-4.05;88.17;100324.66;6328937;28;20040;-76
2022/01/08 00:10:17;;;;;;;19.95;10.45;;;;;;;-3.97;88.22;100322.97;6330107;28;20403;-76
2022/01/08 00:13:18;;;;;;;19.63;10.23;;;;;;;-4.00;89.78;100317.00;6346958;28;20514;-76
2022/01/08 00:16:19;;;;;;;23.08;11.13;;;;;;;-3.95;89.00;100308.53;6321753;28;20042;-76
2022/01/08 00:19:19;;;;;;;20.35;11.10;;;;;;;-3.95;88.71;100308.53;6326492;28;20039;-76
2022/01/08 00:22:20;;;;;;;22.48;10.90;;;;;;;-3.96;89.38;100308.53;6311446;28;20040;-76
2022/01/08 00:25:21;;;;;;;23.70;10.98;;;;;;;-3.99;90.02;100304.28;6346427;28;20040;-76
2022/01/08 00:28:22;;;;;;;22.85;10.40;;;;;;;-4.01;89.36;100305.97;6311588;28;20039;-75
2022/01/08 00:31:23;;;;;;;22.02;9.75;;;;;;;-3.99;88.49;100311.91;6328749;28;20043;-84
2022/01/08 00:34:24;;;;;;;20.65;10.88;;;;;;;-3.93;89.67;100308.50;6348382;28;20404;-84
2022/01/08 00:37:24;;;;;;;20.40;10.73;;;;;;;-3.90;90.37;100309.38;6348274;28;20042;-84
2022/01/08 00:40:26;;;;;;;23.58;11.68;;;;;;;-3.96;91.84;100308.53;6330175;28;20544;-84
2022/01/08 00:43:27;;;;;;;23.95;12.18;;;;;;;-3.97;91.10;100311.94;6329790;28;20039;-84
2022/01/08 00:46:28;;;;;;;20.42;10.85;;;;;;;-3.98;90.95;100312.75;6330128;28;20044;-84
2022/01/08 00:49:29;;;;;;;27.33;11.18;;;;;;;-3.92;89.90;100312.78;6329638;28;20559;-84
2022/01/08 00:52:30;;;;;;;23.65;10.85;;;;;;;-3.89;90.70;100303.44;6312762;28;20040;-83
2022/01/08 00:55:31;;;;;;;24.00;10.95;;;;;;;-3.95;90.98;100300.88;6312744;28;20071;-84
2022/01/08 00:58:32;;;;;;;23.13;11.55;;;;;;;-3.99;91.40;100299.19;6305938;28;20092;-83
2022/01/08 01:01:33;;;;;;;20.42;11.20;;;;;;;-4.11;92.19;100288.94;6287823;28;20067;-84
2022/01/08 01:04:34;;;;;;;17.60;9.98;;;;;;;-4.06;93.42;100293.22;6302566;28;20488;-75
2022/01/08 01:07:35;;;;;;;24.75;12.27;;;;;;;-4.02;91.83;100283.00;6269312;28;20036;-75
2022/01/08 01:10:36;;;;;;;23.30;11.68;;;;;;;-4.01;92.12;100282.19;6302153;28;20044;-75
2022/01/08 01:13:36;;;;;;;21.90;11.38;;;;;;;-3.93;92.38;100276.25;6302255;28;20420;-75
2022/01/08 01:16:38;;;;;;;20.67;11.20;;;;;;;-3.91;92.77;100276.22;6285737;28;20048;-75
2022/01/08 01:19:38;;;;;;;24.48;11.43;;;;;;;-3.83;92.26;100277.09;6302143;28;20051;-76
2022/01/08 01:23:01;;;;;;;25.17;11.45;;;;;;;-3.85;93.86;100260.94;6320150;28;20052;-76
2022/01/08 01:26:05;;;;;;;22.75;11.18;;;;;;;-3.83;91.14;100254.13;6288254;28;20059;-76
2022/01/08 01:49:01;;;;;;;22.45;10.82;;;;;;;-3.74;92.53;100218.47;6304731;28;20070;-75
2022/01/08 01:52:04;;;;;;;24.90;12.75;;;;;;;-3.78;92.83;100216.75;6302012;28;20131;-75
2022/01/08 01:55:06;;;;;;;23.95;12.18;;;;;;;-3.85;95.13;100204.84;6301977;28;20036;-75
2022/01/08 01:58:07;;;;;;;22.48;11.18;;;;;;;-3.74;92.68;100220.16;6303811;28;20054;-83
2022/01/08 02:01:08;;;;;;;32.65;12.73;;;;;;;-3.73;89.58;100211.66;6321950;28;20048;-83
2022/01/08 02:04:09;;;;;;;25.17;12.77;;;;;;;-3.73;91.06;100209.09;6303725;28;20040;-83
2022/01/08 02:07:10;;;;;;;31.20;14.27;;;;;;;-3.64;91.00;100214.22;6321926;28;20165;-83
2022/01/08 02:10:11;;;;;;;28.40;14.55;;;;;;;-3.61;89.83;100209.09;6287317;28;20499;-83
2022/01/08 02:13:28;;;;;;;28.67;13.10;;;;;;;-3.63;89.47;100207.41;6303843;28;20048;-83
2022/01/08 02:16:30;;;;;;;25.73;12.15;;;;;;;-3.60;88.05;100199.72;6321935;28;20463;-83
2022/01/08 02:19:30;;;;;;;20.98;11.02;;;;;;;-3.59;88.13;100204.84;6303803;28;20051;-83
2022/01/08 02:22:31;;;;;;;20.70;12.10;;;;;;;-3.53;90.97;100211.66;6321277;28;20044;-83
2022/01/08 02:25:32;;;;;;;22.85;11.73;;;;;;;-3.43;93.20;100207.41;6274910;28;20425;-83
2022/01/08 02:28:34;;;;;;;18.33;10.05;;;;;;;-3.38;89.47;100218.44;6290159;28;20127;-76
2022/01/08 02:31:34;;;;;;;26.98;12.20;;;;;;;-3.34;87.80;100209.91;6324121;28;20083;-75
2022/01/08 02:34:37;;;;;;;19.88;10.57;;;;;;;-3.41;87.35;100198.88;6329483;28;20054;-75
2022/01/08 02:37:38;;;;;;;23.92;10.65;;;;;;;-3.30;90.00;100202.25;6349306;28;20124;-76
2022/01/08 02:40:38;;;;;;;23.63;11.30;;;;;;;-3.21;88.49;100196.28;6330899;28;20127;-75
2022/01/08 02:43:45;;;;;;;19.95;11.00;;;;;;;-3.18;87.46;100201.38;6314003;28;20471;-76
2022/01/08 02:46:46;;;;;;;22.95;11.20;;;;;;;-3.14;88.39;100197.13;6330697;28;20048;-76
2022/01/08 02:49:52;;;;;;;20.83;10.77;;;;;;;-3.20;87.21;100199.69;6348565;28;20404;-75
2022/01/08 02:52:52;;;;;;;20.58;11.07;;;;;;;-3.25;87.90;100200.53;6310248;28;20052;-75
2022/01/08 02:55:53;;;;;;;26.13;12.23;;;;;;;-3.24;88.01;100194.56;6305519;28;20476;-76
2022/01/08 02:58:54;;;;;;;22.23;11.35;;;;;;;-3.17;90.12;100189.44;6305394;28;20506;-75
2022/01/08 03:01:55;;;;;;;19.25;10.80;;;;;;;-3.19;89.27;100186.06;6328884;28;20039;-75
2022/01/08 03:04:56;;;;;;;25.05;11.07;;;;;;;-3.07;88.60;100188.56;6331608;28;20164;-75
2022/01/08 03:07:56;;;;;;;27.13;12.10;;;;;;;-3.06;88.20;100188.56;6313684;28;20411;-75
2022/01/08 03:10:57;;;;;;;22.35;11.68;;;;;;;-3.09;88.80;100177.50;6313371;28;20044;-75
2022/01/08 03:13:58;;;;;;;19.60;10.80;;;;;;;-3.05;88.92;100181.75;6304921;28;20139;-75
2022/01/08 03:16:59;;;;;;;20.77;10.82;;;;;;;-2.98;89.22;100174.94;6288223;28;20389;-75
2022/01/08 03:20:04;;;;;;;25.73;11.50;;;;;;;-2.91;90.50;100179.16;6304999;28;20071;-75
2022/01/08 03:23:13;;;;;;;25.02;11.52;;;;;;;-2.90;88.86;100175.78;6305285;28;20130;-76
2022/01/08 03:26:17;;;;;;;23.42;12.98;;;;;;;-2.86;91.02;100178.28;6273390;28;20397;-75
2022/01/08 03:29:18;;;;;;;22.52;12.15;;;;;;;-2.85;88.57;100168.91;6322631;28;20044;-76
2022/01/08 03:32:18;;;;;;;25.38;12.18;;;;;;;-2.83;86.90;100173.16;6287884;28;20063;-75
2022/01/08 03:35:19;;;;;;;27.58;13.60;;;;;;;-2.78;88.75;100172.28;6322285;28;20044;-75
2022/01/08 03:38:20;;;;;;;25.30;12.48;;;;;;;-2.81;88.12;100168.06;6304319;28;20087;-75
2022/01/08 03:41:22;;;;;;;26.17;12.35;;;;;;;-2.86;86.71;100168.09;6305002;28;20808;-84
2022/01/08 03:44:23;;;;;;;27.40;13.02;;;;;;;-2.76;89.19;100162.91;6311637;28;20049;-84
2022/01/08 03:50:27;;;;;;;26.73;13.70;;;;;;;-2.94;86.35;100154.50;6313967;28;20066;-84
2022/01/08 03:53:28;;;;;;;22.00;11.68;;;;;;;-2.92;85.48;100146.84;6348834;28;20071;-83
2022/01/08 03:56:29;;;;;;;26.88;13.07;;;;;;;-2.95;86.48;100140.03;6331190;28;20039;-76
2022/01/08 03:59:30;;;;;;;28.63;13.75;;;;;;;-2.92;86.62;100134.06;6295444;28;20115;-75
2022/01/08 04:02:30;;;;;;;26.73;12.77;;;;;;;-2.85;87.03;100133.16;6328904;28;20044;-75
2022/01/08 04:05:31;;;;;;;27.02;13.18;;;;;;;-2.89;86.87;100129.78;6279087;28;20051;-75
2022/01/08 04:08:32;;;;;;;25.00;13.20;;;;;;;-2.80;86.90;100125.47;6328808;28;20137;-75
2022/01/08 04:11:33;;;;;;;25.15;11.95;;;;;;;-2.86;86.65;100117.00;6346838;28;20040;-75
2022/01/08 04:14:51;;;;;;;25.35;12.60;;;;;;;-2.95;87.20;100132.34;6328882;28;20036;-75
2022/01/08 04:17:54;;;;;;;26.35;11.98;;;;;;;-2.84;88.14;100132.34;6299808;28;20044;-75
2022/01/08 04:24:02;;;;;;;23.88;12.18;;;;;;;-2.74;86.81;100125.44;6303709;28;20044;-76
2022/01/08 04:27:03;;;;;;;29.80;14.30;;;;;;;-2.65;86.46;100131.34;6303290;28;20066;-75
2022/01/08 04:30:05;;;;;;;31.23;14.43;;;;;;;-2.57;86.91;100128.75;6304557;28;20044;-75
2022/01/08 04:33:06;;;;;;;25.47;13.83;;;;;;;-2.52;86.76;100123.63;6328417;28;20511;-75
2022/01/08 04:36:07;;;;;;;26.65;13.95;;;;;;;-2.45;86.33;100136.34;6346513;28;20276;-75
2022/01/08 04:39:08;;;;;;;27.98;14.68;;;;;;;-2.47;86.91;100139.75;6294819;28;20036;-75
2022/01/08 04:42:09;;;;;;;29.42;13.73;;;;;;;-2.42;91.35;100149.97;6311431;28;20074;-75
2022/01/08 04:45:10;;;;;;;32.05;14.40;;;;;;;-2.36;89.07;100142.25;6308932;28;20057;-75
2022/01/08 04:48:12;;;;;;;27.30;14.88;;;;;;;-2.32;88.83;100149.88;6328173;28;20050;-77
2022/01/08 04:51:13;;;;;;;31.65;15.20;;;;;;;-2.34;86.22;100143.94;6346081;28;20032;-75
2022/01/08 04:54:14;;;;;;;37.17;15.88;;;;;;;-2.34;87.86;100145.66;6311098;28;20046;-75
2022/01/08 04:57:15;;;;;;;33.08;15.80;;;;;;;-2.31;86.36;100141.34;6328057;28;20035;-75
2022/01/08 05:00:17;;;;;;;30.38;14.40;;;;;;;-2.37;86.01;100149.06;6345949;28;20040;-75
2022/01/08 05:03:18;;;;;;;30.42;15.45;;;;;;;-2.37;86.85;100141.41;6311147;28;20031;-75
2022/01/08 05:06:19;;;;;;;28.23;14.45;;;;;;;-2.52;85.97;100150.00;6294343;28;20514;-76
2022/01/08 05:09:19;;;;;;;31.27;15.07;;;;;;;-2.54;87.56;100145.78;6310973;28;20066;-75
2022/01/08 05:12:20;;;;;;;27.48;14.57;;;;;;;-2.52;87.89;100142.34;6332158;28;20063;-75
2022/01/08 05:15:21;;;;;;;32.88;15.88;;;;;;;-2.39;87.47;100148.22;6285730;28;20058;-76
2022/01/08 05:18:23;;;;;;;35.58;15.20;;;;;;;-2.38;87.64;100138.88;6320468;28;20065;-75
2022/01/08 05:21:26;;;;;;;32.77;16.07;;;;;;;-2.48;89.63;100144.03;6320869;28;20059;-76
2022/01/08 05:24:27;;;;;;;28.45;15.68;;;;;;;-2.33;88.38;100139.66;6345600;28;20055;-75
2022/01/08 05:27:27;;;;;;;31.40;15.48;;;;;;;-2.36;89.62;100132.03;6327441;28;20042;-75
2022/01/08 05:30:30;;;;;;;30.08;15.20;;;;;;;-2.38;90.10;100142.28;6345555;28;20066;-75
2022/01/08 05:33:30;;;;;;;36.05;17.13;;;;;;;-2.33;88.81;100135.41;6310776;28;20042;-76
2022/01/08 05:36:31;;;;;;;35.38;17.15;;;;;;;-2.26;88.69;100137.06;6327464;28;20036;-75
2022/01/08 05:39:32;;;;;;;30.63;17.13;;;;;;;-2.26;87.93;100131.13;6310350;28;20055;-75
2022/01/08 05:42:33;;;;;;;39.65;16.90;;;;;;;-2.26;87.05;100121.72;6328439;28;20131;-75
2022/01/08 05:45:34;;;;;;;36.03;19.25;;;;;;;-2.21;87.53;100121.69;6345644;28;20408;-75
2022/01/08 05:48:36;;;;;;;50.47;24.63;;;;;;;-2.26;88.29;100123.44;6310384;28;20044;-75
2022/01/08 05:51:37;;;;;;;53.05;28.05;;;;;;;-2.17;88.28;100120.81;6294298;28;20040;-75
2022/01/08 05:54:38;;;;;;;43.05;22.92;;;;;;;-2.23;87.85;100118.28;6310431;28;20040;-75
2022/01/08 05:57:38;;;;;;;34.45;18.90;;;;;;;-2.36;88.35;100124.38;6347035;28;20403;-84
2022/01/08 06:00:39;;;;;;;43.30;19.90;;;;;;;-2.24;88.03;100131.97;6332260;28;20501;-84
2022/01/08 06:03:40;;;;;;;44.50;22.50;;;;;;;-2.15;88.58;100131.88;6332140;28;20433;-84
2022/01/08 06:06:40;;;;;;;59.83;27.70;;;;;;;-2.16;87.98;100135.31;6332201;28;20036;-84
2022/01/08 06:09:41;;;;;;;56.03;29.70;;;;;;;-2.04;87.71;100130.09;6332475;28;20119;-84
2022/01/08 06:12:42;;;;;;;41.00;20.67;;;;;;;-2.10;88.76;100132.69;6331971;28;20039;-84
2022/01/08 06:15:43;;;;;;;35.28;18.92;;;;;;;-2.11;88.33;100127.59;6331860;28;20416;-85
2022/01/08 06:18:43;;;;;;;41.08;19.33;;;;;;;-2.03;88.62;100142.00;6349962;28;20040;-84
2022/01/08 06:21:44;;;;;;;35.65;18.58;;;;;;;-2.03;88.53;100146.28;6349644;28;20621;-85
2022/01/08 06:24:45;;;;;;;37.05;20.08;;;;;;;-1.96;88.06;100147.06;6331592;28;20564;-85
2022/01/08 06:27:45;;;;;;;43.28;21.10;;;;;;;-1.92;87.78;100147.03;6349746;28;20035;-82
2022/01/08 06:30:49;;;;;;;44.55;20.90;;;;;;;-1.91;89.13;100148.72;6337711;28;20043;-85
2022/01/08 06:33:51;;;;;;;44.63;21.30;;;;;;;-1.84;90.53;100150.34;6289982;28;20731;-84
2022/01/08 06:36:52;;;;;;;43.92;23.98;;;;;;;-1.82;90.21;100160.59;6337251;28;20039;-83
2022/01/08 06:39:52;;;;;;;50.05;27.35;;;;;;;-1.79;90.82;100158.00;6312114;28;20506;-84
2022/01/08 06:42:53;;;;;;;45.95;25.30;;;;;;;-1.80;90.25;100160.59;6310427;28;20044;-76
2022/01/08 06:45:54;;;;;;;47.55;24.67;;;;;;;-1.77;90.25;100147.75;6306016;28;20048;-75
2022/01/08 06:48:55;;;;;;;46.72;23.80;;;;;;;-1.70;90.32;100151.97;6288293;28;20480;-75
2022/01/08 06:51:55;;;;;;;47.85;24.08;;;;;;;-1.66;90.77;100145.94;6332557;28;20491;-76
2022/01/08 06:54:56;;;;;;;50.33;24.52;;;;;;;-1.65;89.45;100148.50;6330905;28;20047;-75
2022/01/08 06:57:58;;;;;;;54.70;26.55;;;;;;;-1.68;89.36;100147.69;6330805;28;20134;-75
2022/01/08 07:00:58;;;;;;;54.35;24.73;;;;;;;-1.71;87.67;100146.00;6348779;28;20372;-75
2022/01/08 07:03:59;;;;;;;58.53;26.38;;;;;;;-1.75;88.35;100140.91;6296121;28;20109;-77
2022/01/08 07:07:00;;;;;;;54.15;27.50;;;;;;;-1.75;87.83;100133.22;6340802;28;20046;-77
2022/01/08 07:10:01;;;;;;;51.50;25.02;;;;;;;-1.68;88.51;100135.72;6330030;28;20396;-76
2022/01/08 07:13:02;;;;;;;49.72;24.05;;;;;;;-1.74;87.54;100142.63;6313383;28;20476;-76
2022/01/08 07:16:03;;;;;;;44.47;21.65;;;;;;;-1.74;86.81;100148.56;6330241;28;20070;-76
2022/01/08 07:19:04;;;;;;;42.63;22.05;;;;;;;-1.77;88.26;100148.63;6330345;28;20397;-83
2022/01/08 07:22:05;;;;;;;55.70;25.40;;;;;;;-1.77;90.26;100146.06;6330118;28;20043;-83
2022/01/08 07:25:08;;;;;;;55.83;25.77;;;;;;;-1.78;88.95;100151.19;6307119;28;20534;-84
2022/01/08 07:28:09;;;;;;;51.70;26.85;;;;;;;-1.72;89.68;100148.56;6325745;28;20040;-84
2022/01/08 07:31:09;;;;;;;52.60;26.05;;;;;;;-1.71;89.61;100137.47;6324191;28;20051;-84
2022/01/08 07:34:10;;;;;;;49.40;24.50;;;;;;;-1.70;90.18;100141.72;6313752;28;20056;-85
2022/01/08 07:37:11;;;;;;;46.17;22.55;;;;;;;-1.76;90.90;100144.34;6314412;28;20054;-84
2022/01/08 07:40:13;;;;;;;48.03;24.15;;;;;;;-1.89;91.63;100146.16;6297745;28;20040;-85
2022/01/08 07:43:14;;;;;;;51.33;24.45;;;;;;;-1.87;92.56;100142.72;6331018;28;20506;-85
2022/01/08 07:46:15;;;;;;;46.67;21.52;;;;;;;-1.79;93.76;100140.13;6313737;28;20040;-85
2022/01/08 07:49:16;;;;;;;42.15;22.38;;;;;;;-1.77;93.16;100146.06;6348713;28;20100;-84
2022/01/08 07:52:17;;;;;;;42.80;22.08;;;;;;;-1.81;93.43;100141.84;6293996;28;20048;-76
2022/01/08 07:55:17;;;;;;;39.05;20.48;;;;;;;-1.74;94.22;100138.34;6306436;28;20115;-76
2022/01/08 07:58:20;;;;;;;39.38;21.48;;;;;;;-1.63;93.77;100143.34;6328411;28;20040;-76
2022/01/08 08:01:22;;;;;;;41.15;20.02;;;;;;;-1.57;92.84;100134.78;6330918;28;20035;-75
2022/01/08 08:04:22;;;;;;;36.60;19.17;;;;;;;-1.51;92.64;100142.38;6327808;28;20492;-76
2022/01/08 08:07:28;;;;;;;36.35;18.63;;;;;;;-1.43;93.75;100138.03;6288716;28;20122;-76
2022/01/08 08:10:29;;;;;;;39.28;18.95;;;;;;;-1.56;93.10;100139.03;6288938;28;20052;-76
2022/01/08 08:13:30;;;;;;;36.25;19.73;;;;;;;-1.53;92.81;100144.94;6305332;28;20082;-76
2022/01/08 08:16:32;;;;;;;46.42;21.13;;;;;;;-1.39;93.80;100134.59;6305280;28;20036;-75
2022/01/08 08:19:32;;;;;;;41.13;21.08;;;;;;;-1.26;93.05;100127.59;6322488;28;20407;-76
2022/01/08 08:22:33;;;;;;;57.63;28.58;;;;;;;-1.27;93.03;100126.75;6302596;28;20036;-75
2022/01/08 08:25:34;;;;;;;105.07;42.92;;;;;;;-1.16;92.11;100128.34;6287955;28;20055;-75
2022/01/08 08:28:35;;;;;;;72.65;28.80;;;;;;;-1.17;92.22;100132.63;6323075;28;20168;-84
2022/01/08 08:31:36;;;;;;;51.65;24.65;;;;;;;-1.12;93.77;100127.44;6323119;28;20036;-83
2022/01/08 08:34:37;;;;;;;37.72;19.88;;;;;;;-1.09;93.05;100128.28;6304834;28;20089;-85
2022/01/08 08:37:38;;;;;;;38.58;19.88;;;;;;;-1.14;93.94;100117.22;6334954;28;20043;-85
2022/01/08 08:40:40;;;;;;;41.40;20.63;;;;;;;-1.25;96.02;100125.03;6324042;28;20040;-85
2022/01/08 08:43:41;;;;;;;46.92;20.98;;;;;;;-1.28;94.77;100124.22;6333972;28;20035;-85
2022/01/08 08:46:42;;;;;;;38.45;19.98;;;;;;;-1.31;94.32;100117.44;6329842;28;20102;-85
2022/01/08 08:49:42;;;;;;;36.22;19.00;;;;;;;-1.28;93.15;100117.38;6329311;28;20047;-84
2022/01/08 08:52:43;;;;;;;40.20;19.77;;;;;;;-1.24;93.32;100116.47;6329388;28;20130;-75
2022/01/08 08:55:44;;;;;;;40.53;19.38;;;;;;;-1.03;92.37;100119.66;6312292;28;20058;-75
2022/01/08 08:58:45;;;;;;;41.00;20.05;;;;;;;-0.90;92.79;100115.25;6303711;28;20544;-75
2022/01/08 09:01:46;;;;;;;34.08;17.05;;;;;;;-0.96;89.56;100121.28;6303462;28;20044;-76
2022/01/08 09:04:48;;;;;;;27.55;16.27;;;;;;;-0.96;88.89;100121.28;6327967;28;20044;-74
2022/01/08 09:07:49;;;;;;;;;;;;;;;-0.79;89.15;100121.06;6347242;28;20093;-74
2022/01/08 09:10:50;;;;;;;33.17;16.45;;;;;;;-0.70;88.53;100108.13;6311692;28;20006;-75
2022/01/08 09:13:50;;;;;;;32.60;17.60;;;;;;;-0.57;86.18;100100.25;6329025;28;20476;-86
2022/01/08 09:16:55;;;;;;;34.60;17.30;;;;;;;-0.54;83.52;100102.78;6329018;28;20445;-74
2022/01/08 09:19:56;;;;;;;38.30;19.80;;;;;;;-0.47;87.32;100100.09;6294376;28;20079;-73
2022/01/08 09:22:57;;;;;;;40.17;21.63;;;;;;;-0.43;87.58;100095.78;6326834;28;20097;-74
2022/01/08 09:25:58;;;;;;;52.63;26.88;;;;;;;-0.39;88.30;100091.44;6346682;28;20123;-84
2022/01/08 09:28:59;;;;;;;57.28;28.13;;;;;;;-0.48;88.75;100083.00;6328271;28;20096;-85
2022/01/08 09:32:00;;;;;;;57.85;29.35;;;;;;;-0.43;90.16;100076.09;6317584;28;20078;-85
2022/01/08 09:35:01;;;;;;;59.83;27.92;;;;;;;-0.44;90.51;100071.00;6333740;28;20043;-85
2022/01/08 09:38:05;;;;;;;48.47;26.13;;;;;;;-0.47;89.80;100071.91;6334047;28;20058;-85
2022/01/08 09:41:06;;;;;;;49.05;22.58;;;;;;;-0.39;89.20;100071.78;6327805;28;20035;-85
2022/01/08 09:44:07;;;;;;;46.65;22.77;;;;;;;-0.39;88.28;100065.78;6332491;28;20040;-86
2022/01/08 09:47:08;;;;;;;49.67;24.70;;;;;;;-0.36;88.67;100050.38;6350900;28;20093;-86
2022/01/08 09:50:09;;;;;;;54.35;28.17;;;;;;;-0.38;91.36;100050.41;6350633;28;20064;-75
2022/01/08 09:53:11;;;;;;;62.97;31.20;;;;;;;-0.28;91.39;100038.28;6315630;28;20043;-75
2022/01/08 09:56:13;;;;;;;71.82;36.20;;;;;;;-0.30;91.51;100045.16;6350266;28;20475;-84
2022/01/08 09:59:14;;;;;;;80.93;40.45;;;;;;;-0.23;91.46;100032.19;6350521;28;20442;-85
2022/01/08 10:02:20;;;;;;;78.93;39.88;;;;;;;-0.11;90.99;100040.53;6332202;28;20439;-85
2022/01/08 10:05:21;;;;;;;69.95;36.80;;;;;;;-0.02;89.74;100030.13;6350177;28;20040;-75
2022/01/08 10:08:24;;;;;;;75.88;38.58;;;;;;;-0.01;87.98;100024.13;6325489;28;20051;-75
2022/01/08 10:11:28;;;;;;;75.38;38.45;;;;;;;0.05;88.79;100024.00;6334040;28;20035;-76
2022/01/08 10:17:13;;;;;;;76.88;38.28;;;;;;;0.05;88.00;100018.88;6347927;28;20047;-85
2022/01/08 10:17:54;;;;;;;72.88;37.55;;;;;;;0.11;87.64;100020.50;6350112;28;20420;-75
2022/01/08 10:20:57;;;;;;;76.50;39.53;;;;;;;0.22;87.53;100021.13;6348182;28;20065;-84
2022/01/08 10:24:04;;;;;;;80.90;40.10;;;;;;;0.20;90.53;100022.88;6348235;28;20404;-75
2022/01/08 10:27:06;;;;;;;75.00;39.72;;;;;;;0.27;90.60;100018.47;6346740;28;20040;-75
2022/01/08 10:30:08;;;;;;;;;;;;;;;0.28;90.97;100017.59;6343701;28;20051;-85
2022/01/08 10:33:09;;;;;;;64.43;33.95;;;;;;;0.30;90.26;100013.28;6348527;28;19923;-75
2022/01/08 10:36:11;;;;;;;70.55;34.85;;;;;;;0.30;89.05;100014.13;6348807;28;20066;-85
2022/01/08 10:39:19;;;;;;;75.95;39.67;;;;;;;0.35;89.05;100014.00;6350457;28;20050;-75
2022/01/08 10:42:21;;;;;;;79.10;39.00;;;;;;;0.38;89.64;100013.97;6341789;28;20062;-75
2022/01/08 10:45:23;;;;;;;66.15;35.35;;;;;;;0.23;88.59;100006.56;6345491;28;20054;-86
2022/01/08 10:48:31;;;;;;;67.22;32.72;;;;;;;0.27;89.42;99996.22;6348256;28;20044;-76
2022/01/08 10:51:37;;;;;;;70.22;35.45;;;;;;;0.40;89.87;99995.09;6345661;27;20126;-76
2022/01/08 10:54:43;;;;;;;59.75;32.13;;;;;;;0.39;89.73;99989.97;6347291;28;20043;-85
2022/01/08 10:57:55;;;;;;;72.07;36.00;;;;;;;0.51;91.05;99988.88;6348466;28;20051;-85
2022/01/08 11:00:59;;;;;;;65.63;33.70;;;;;;;0.57;92.62;99979.31;6347771;28;20048;-75
2022/01/08 11:03:59;;;;;;;55.05;28.58;;;;;;;0.70;92.82;99971.38;6330949;28;20406;-74
2022/01/08 11:07:06;;;;;;;41.50;22.90;;;;;;;0.78;93.80;99962.63;6347256;28;20040;-75
2022/01/08 11:10:15;;;;;;;47.90;25.20;;;;;;;0.88;92.42;99959.84;6329966;28;20133;-74
2022/01/08 11:13:18;;;;;;;45.33;23.10;;;;;;;0.87;91.96;99958.16;6327805;28;20050;-77
2022/01/08 11:16:20;;;;;;;50.00;27.23;;;;;;;0.83;95.42;99959.13;6329328;28;20075;-76
2022/01/08 11:19:24;;;;;;;44.00;25.53;;;;;;;0.87;94.72;99965.88;6311042;28;20067;-75
2022/01/08 11:22:29;;;;;;;42.72;24.55;;;;;;;0.82;95.50;99963.38;6343762;28;20659;-86
2022/01/08 11:25:35;;;;;;;39.95;21.65;;;;;;;0.75;94.79;99962.69;6325268;28;20043;-86
2022/01/08 11:28:37;;;;;;;37.30;21.30;;;;;;;0.74;95.51;99967.84;6346102;28;20040;-86
2022/01/08 11:31:38;;;;;;;40.85;22.25;;;;;;;0.82;95.89;99967.69;6348684;28;20043;-85
2022/01/08 11:34:44;;;;;;;41.88;22.92;;;;;;;0.84;96.29;99959.06;6340218;28;20062;-86
2022/01/08 11:37:47;;;;;;;50.08;27.40;;;;;;;0.95;97.31;99958.84;6324033;28;20050;-85
2022/01/08 11:40:51;;;;;;;40.40;23.08;;;;;;;1.07;97.16;99965.41;6311533;28;20054;-76
2022/01/08 11:43:54;;;;;;;39.65;22.25;;;;;;;1.17;97.28;99957.47;6317924;28;20051;-75
2022/01/08 11:46:55;;;;;;;39.92;23.10;;;;;;;1.23;95.27;99945.31;6322349;28;20055;-74
2022/01/08 11:50:19;;;;;;;46.13;24.70;;;;;;;1.30;94.73;99954.59;6304555;28;20430;-89
2022/01/08 11:53:44;;;;;;;44.35;22.98;;;;;;;1.10;95.94;99940.47;6322638;28;20060;-76
2022/01/08 11:56:48;;;;;;;37.80;21.58;;;;;;;1.19;96.02;99924.84;6322843;28;20165;-76
2022/01/08 11:59:56;;;;;;;39.03;20.85;;;;;;;1.20;97.65;99933.41;6288982;28;20055;-75
2022/01/08 12:03:35;;;;;;;37.90;19.95;;;;;;;1.23;96.25;99935.03;6305878;28;20464;-75
2022/01/08 12:06:39;;;;;;;37.15;19.90;;;;;;;1.24;99.32;99934.19;6323137;28;20546;-75
2022/01/08 12:09:40;;;;;;;39.05;22.85;;;;;;;1.12;98.53;99932.75;6323167;28;20044;-85
2022/01/08 12:12:45;;;;;;;38.05;21.58;;;;;;;0.99;99.40;99924.50;6323298;28;20048;-87
2022/01/08 12:15:48;;;;;;;43.00;23.98;;;;;;;1.06;100.00;99922.59;6322785;28;20089;-75
2022/01/08 12:18:53;;;;;;;37.92;22.50;;;;;;;0.91;100.00;99913.53;6322654;28;20044;-75
2022/01/08 12:21:55;;;;;;;50.20;27.77;;;;;;;0.85;100.00;99913.69;6321955;28;20044;-75
2022/01/08 12:25:00;;;;;;;60.28;31.65;;;;;;;0.76;100.00;99915.59;6303867;28;20503;-75
2022/01/08 12:28:01;;;;;;;48.22;25.42;;;;;;;0.87;100.00;99919.63;6288201;28;20063;-74
2022/01/08 12:31:28;;;;;;;45.90;26.05;;;;;;;0.56;100.00;99918.59;6273082;28;20050;-88
2022/01/08 12:34:30;;;;;;;47.30;26.15;;;;;;;0.65;100.00;99914.13;6326824;28;20044;-88
2022/01/08 12:37:37;;;;;;;45.13;26.23;;;;;;;0.57;100.00;99915.13;6309312;28;20040;-81
2022/01/08 12:40:49;;;;;;;46.88;25.65;;;;;;;0.63;100.00;99919.31;6310575;28;20126;-83
2022/01/08 12:43:53;;;;;;;40.38;22.88;;;;;;;0.64;100.00;99913.31;6341910;28;20039;-84
2022/01/08 12:46:54;;;;;;;36.28;22.75;;;;;;;0.66;100.00;99910.69;6303152;28;20039;-84
2022/01/08 12:50:21;;;;;;;44.58;23.30;;;;;;;0.48;100.00;99910.22;6303283;28;20077;-81
2022/01/08 12:53:25;;;;;;;50.28;23.35;;;;;;;0.51;100.00;99911.88;6320943;28;20458;-87
2022/01/08 12:56:26;;;;;;;45.88;24.15;;;;;;;0.43;100.00;99896.63;6320936;28;20083;-83
2022/01/08 12:59:39;;;;;;;55.35;28.45;;;;;;;0.61;100.00;99897.94;6319976;28;20043;-84
2022/01/08 13:02:47;;;;;;;70.63;35.13;;;;;;;0.52;100.00;99895.59;6344746;28;20054;-81
2022/01/08 13:05:53;;;;;;;56.35;30.52;;;;;;;0.33;100.00;99900.28;6328349;28;20452;-75
2022/01/08 13:08:54;;;;;;;56.97;31.83;;;;;;;0.31;100.00;99900.31;6327204;28;20059;-82
2022/01/08 13:11:56;;;;;;;60.60;32.83;;;;;;;0.38;100.00;99891.59;6310889;28;20047;-81
2022/01/08 13:15:02;;;;;;;59.00;33.05;;;;;;;0.36;100.00;99895.91;6327837;28;20119;-81
2022/01/08 13:18:24;;;;;;;61.67;32.85;;;;;;;0.35;100.00;99893.38;6327728;28;20044;-81
2022/01/08 13:21:29;;;;;;;58.50;32.50;;;;;;;0.14;100.00;99897.25;6345660;28;20402;-83
2022/01/08 13:24:52;;;;;;;52.55;30.42;;;;;;;0.01;100.00;99901.81;6327261;28;20059;-80
2022/01/08 13:27:52;;;;;;;59.40;32.45;;;;;;;0.14;100.00;99895.53;6327754;28;20046;-81
2022/01/08 13:30:53;;;;;;;54.67;32.72;;;;;;;-0.02;100.00;99889.88;6327544;28;20047;-81
2022/01/08 13:33:57;;;;;;;52.45;29.98;;;;;;;0.01;100.00;99899.22;6327543;28;20130;-81
2022/01/08 13:37:12;;;;;;;51.75;31.65;;;;;;;-0.06;100.00;99884.84;6327643;28;20039;-82
2022/01/08 13:40:13;;;;;;;;;;;;;;;-0.08;100.00;99891.72;6342756;28;20036;-82
2022/01/08 13:43:24;;;;;;;55.90;31.70;;;;;;;0.00;100.00;99895.00;6346182;28;19924;-82
2022/01/08 13:46:31;;;;;;;62.28;31.42;;;;;;;-0.09;100.00;99888.31;6344930;28;20054;-82
2022/01/08 13:49:33;;;;;;;63.35;34.95;;;;;;;-0.11;100.00;99884.91;6344776;28;20109;-82
2022/01/08 13:52:44;;;;;;;59.53;29.80;;;;;;;-0.11;100.00;99873.81;6345002;28;20071;-81
2022/01/08 13:55:47;;;;;;;58.88;32.08;;;;;;;-0.15;100.00;99878.16;6342297;28;20063;-82
2022/01/08 13:58:48;;;;;;;59.92;32.55;;;;;;;-0.16;100.00;99880.78;6346013;28;20039;-80
2022/01/08 14:01:49;;;;;;;60.80;33.10;;;;;;;-0.18;100.00;99879.97;6293393;28;20055;-82
2022/01/08 14:04:53;;;;;;;62.45;32.92;;;;;;;-0.07;100.00;99881.41;6345276;28;20050;-81
2022/01/08 14:08:04;;;;;;;62.47;33.33;;;;;;;-0.08;100.00;99878.91;6345914;28;20120;-81
2022/01/08 14:11:05;;;;;;;58.50;32.50;;;;;;;-0.10;100.00;99878.09;6346119;28;20448;-82
2022/01/08 14:14:18;;;;;;;60.88;32.67;;;;;;;0.03;100.00;99876.97;6327894;28;20043;-81
2022/01/08 14:17:19;;;;;;;47.58;28.05;;;;;;;0.07;100.00;99883.72;6312261;28;20096;-82
2022/01/08 14:20:27;;;;;;;48.03;24.90;;;;;;;0.06;100.00;99886.31;6331751;28;20051;-82